createdAt,value
2023-07-14T00:00:08.041Z,261
2023-07-14T00:00:40.452Z,275
2023-07-14T00:01:10.935Z,264
2023-07-14T00:01:43.704Z,264
2023-07-14T00:02:14.633Z,264
2023-07-14T00:02:47.742Z,265
2023-07-14T00:03:18.958Z,264
2023-07-14T00:03:51.625Z,264
2023-07-14T00:04:22.762Z,264
2023-07-14T00:04:55.717Z,264
2023-07-14T00:05:26.902Z,265
2023-07-14T00:05:59.509Z,264
2023-07-14T00:06:30.911Z,264
2023-07-14T00:07:03.451Z,270
2023-07-14T00:07:34.826Z,270
2023-07-14T00:08:07.615Z,270
2023-07-14T00:08:38.841Z,270
2023-07-14T00:09:11.625Z,270
2023-07-14T00:09:42.803Z,270
2023-07-14T00:10:15.904Z,276
2023-07-14T00:10:46.922Z,270
2023-07-14T00:11:19.495Z,270
2023-07-14T00:11:50.819Z,260
2023-07-14T00:12:23.792Z,260
2023-07-14T00:12:54.843Z,240
2023-07-14T00:13:10.826Z,243
2023-07-14T00:13:42.642Z,270
2023-07-14T00:14:14.756Z,250
2023-07-14T00:14:46.809Z,261
2023-07-14T00:15:19.603Z,261
2023-07-14T00:15:51.787Z,261
2023-07-14T00:16:22.765Z,261
2023-07-14T00:16:55.678Z,259
2023-07-14T00:17:26.864Z,259
2023-07-14T00:17:59.616Z,259
2023-07-14T00:18:30.717Z,250
2023-07-14T00:19:03.610Z,259
2023-07-14T00:19:34.742Z,259
2023-07-14T00:20:07.670Z,260
2023-07-14T00:20:38.792Z,259
2023-07-14T00:21:11.899Z,259
2023-07-14T00:21:42.818Z,259
2023-07-14T00:22:15.577Z,259
2023-07-14T00:22:46.759Z,259
2023-07-14T00:23:19.815Z,266
2023-07-14T00:23:50.846Z,259
2023-07-14T00:24:23.481Z,268
2023-07-14T00:24:54.846Z,268
2023-07-14T00:25:27.970Z,268
2023-07-14T00:25:58.657Z,268
2023-07-14T00:26:31.869Z,268
2023-07-14T00:27:02.805Z,268
2023-07-14T00:27:35.603Z,267
2023-07-14T00:28:06.759Z,265
2023-07-14T00:28:39.841Z,265
2023-07-14T00:29:10.808Z,267
2023-07-14T00:29:43.592Z,265
2023-07-14T00:30:15.657Z,264
2023-07-14T00:30:47.707Z,264
2023-07-14T00:31:18.712Z,265
2023-07-14T00:31:51.947Z,265
2023-07-14T00:32:22.869Z,265
2023-07-14T00:32:55.853Z,265
2023-07-14T00:33:26.768Z,273
2023-07-14T00:33:59.721Z,273
2023-07-14T00:34:30.808Z,259
2023-07-14T00:35:03.886Z,268
2023-07-14T00:35:34.790Z,263
2023-07-14T00:36:07.788Z,268
2023-07-14T00:36:38.814Z,268
2023-07-14T00:37:11.557Z,268
2023-07-14T00:37:42.735Z,236
2023-07-14T00:38:15.788Z,265
2023-07-14T00:38:46.726Z,265
2023-07-14T00:39:19.470Z,289
2023-07-14T00:39:50.756Z,265
2023-07-14T00:40:23.954Z,265
2023-07-14T00:40:54.705Z,265
2023-07-14T00:41:27.565Z,259
2023-07-14T00:41:58.790Z,259
2023-07-14T00:42:31.613Z,259
2023-07-14T00:43:02.861Z,259
2023-07-14T00:43:35.554Z,259
2023-07-14T00:44:06.716Z,259
2023-07-14T00:44:39.553Z,244
2023-07-14T00:45:11.916Z,244
2023-07-14T00:45:43.915Z,244
2023-07-14T00:46:14.691Z,244
2023-07-14T00:46:47.551Z,244
2023-07-14T00:47:18.977Z,244
2023-07-14T00:47:51.438Z,244
2023-07-14T00:48:22.748Z,244
2023-07-14T00:48:55.685Z,244
2023-07-14T00:49:26.855Z,236
2023-07-14T00:49:59.460Z,233
2023-07-14T00:50:31.180Z,241
2023-07-14T00:51:03.352Z,241
2023-07-14T00:51:34.864Z,245
2023-07-14T00:52:07.672Z,245
2023-07-14T00:52:38.809Z,245
2023-07-14T00:53:11.449Z,245
2023-07-14T00:53:42.800Z,245
2023-07-14T00:54:15.604Z,245
2023-07-14T00:54:46.676Z,245
2023-07-14T00:55:19.841Z,245
2023-07-14T00:55:50.860Z,245
2023-07-14T00:56:23.469Z,245
2023-07-14T00:56:54.702Z,245
2023-07-14T00:57:27.539Z,245
2023-07-14T00:57:58.952Z,245
2023-07-14T00:58:31.417Z,245
2023-07-14T00:59:02.680Z,246
2023-07-14T00:59:35.565Z,252
2023-07-14T01:00:08.662Z,252
2023-07-14T01:00:39.521Z,252
2023-07-14T01:01:11.146Z,252
2023-07-14T01:01:43.707Z,256
2023-07-14T01:02:14.799Z,261
2023-07-14T01:02:47.486Z,261
2023-07-14T01:03:18.998Z,261
2023-07-14T01:03:51.639Z,245
2023-07-14T01:04:22.697Z,253
2023-07-14T01:04:55.536Z,281
2023-07-14T01:05:27.130Z,245
2023-07-14T01:05:59.560Z,245
2023-07-14T01:06:30.627Z,245
2023-07-14T01:07:03.562Z,245
2023-07-14T01:07:34.775Z,254
2023-07-14T01:08:07.480Z,259
2023-07-14T01:08:38.876Z,264
2023-07-14T01:09:11.567Z,260
2023-07-14T01:09:42.768Z,260
2023-07-14T01:10:15.893Z,260
2023-07-14T01:10:46.921Z,260
2023-07-14T01:11:19.571Z,264
2023-07-14T01:11:50.861Z,260
2023-07-14T01:12:23.646Z,260
2023-07-14T01:12:55.017Z,260
2023-07-14T01:13:27.380Z,260
2023-07-14T01:13:58.771Z,260
2023-07-14T01:14:31.669Z,263
2023-07-14T01:15:04.023Z,263
2023-07-14T01:15:35.742Z,267
2023-07-14T01:16:06.882Z,263
2023-07-14T01:16:39.533Z,263
2023-07-14T01:17:10.792Z,263
2023-07-14T01:17:43.700Z,263
2023-07-14T01:18:14.890Z,263
2023-07-14T01:18:47.479Z,263
2023-07-14T01:19:18.752Z,263
2023-07-14T01:19:51.437Z,263
2023-07-14T01:20:22.920Z,263
2023-07-14T01:20:55.620Z,263
2023-07-14T01:21:26.754Z,262
2023-07-14T01:21:59.845Z,262
2023-07-14T01:22:30.803Z,263
2023-07-14T01:23:03.824Z,262
2023-07-14T01:23:34.895Z,262
2023-07-14T01:24:07.514Z,262
2023-07-14T01:24:38.742Z,262
2023-07-14T01:24:54.895Z,262
2023-07-14T01:25:27.004Z,261
2023-07-14T01:25:58.777Z,261
2023-07-14T01:26:30.942Z,261
2023-07-14T01:27:02.655Z,261
2023-07-14T01:27:35.680Z,268
2023-07-14T01:28:06.823Z,262
2023-07-14T01:28:39.610Z,262
2023-07-14T01:29:10.748Z,262
2023-07-14T01:29:43.443Z,262
2023-07-14T01:30:16.014Z,262
2023-07-14T01:30:47.725Z,263
2023-07-14T01:31:18.841Z,268
2023-07-14T01:31:51.834Z,268
2023-07-14T01:32:22.851Z,268
2023-07-14T01:32:55.769Z,268
2023-07-14T01:33:26.766Z,268
2023-07-14T01:33:59.669Z,268
2023-07-14T01:34:30.769Z,268
2023-07-14T01:35:03.930Z,268
2023-07-14T01:35:34.885Z,268
2023-07-14T01:36:07.778Z,268
2023-07-14T01:36:38.700Z,268
2023-07-14T01:36:54.952Z,268
2023-07-14T01:37:26.674Z,298
2023-07-14T01:37:58.829Z,298
2023-07-14T01:38:30.783Z,298
2023-07-14T01:39:02.679Z,298
2023-07-14T01:39:36.464Z,298
2023-07-14T01:40:06.959Z,298
2023-07-14T01:40:39.623Z,298
2023-07-14T01:41:10.950Z,298
2023-07-14T01:41:43.563Z,298
2023-07-14T01:42:14.795Z,327
2023-07-14T01:42:47.642Z,327
2023-07-14T01:43:18.734Z,327
2023-07-14T01:43:51.613Z,327
2023-07-14T01:44:22.840Z,327
2023-07-14T01:44:55.603Z,327
2023-07-14T01:45:27.862Z,327
2023-07-14T01:45:59.854Z,327
2023-07-14T01:46:30.740Z,327
2023-07-14T01:47:03.624Z,327
2023-07-14T01:47:34.904Z,327
2023-07-14T01:48:07.795Z,327
2023-07-14T01:48:38.672Z,327
2023-07-14T01:49:11.522Z,327
2023-07-14T01:49:42.780Z,327
2023-07-14T01:50:15.891Z,327
2023-07-14T01:50:46.734Z,327
2023-07-14T01:51:19.934Z,327
2023-07-14T01:51:50.883Z,327
2023-07-14T01:52:23.579Z,327
2023-07-14T01:52:54.791Z,327
2023-07-14T01:53:27.569Z,327
2023-07-14T01:53:58.739Z,327
2023-07-14T01:54:31.629Z,327
2023-07-14T01:55:03.077Z,327
2023-07-14T01:55:35.585Z,327
2023-07-14T01:56:06.770Z,327
2023-07-14T01:56:22.935Z,327
2023-07-14T01:56:54.633Z,327
2023-07-14T01:57:26.798Z,327
2023-07-14T01:57:58.853Z,327
2023-07-14T01:58:30.756Z,327
2023-07-14T01:59:03.651Z,327
2023-07-14T01:59:34.840Z,327
2023-07-14T02:00:09.416Z,327
2023-07-14T02:00:38.836Z,327
2023-07-14T02:01:11.947Z,327
2023-07-14T02:01:42.915Z,327
2023-07-14T02:02:15.800Z,327
2023-07-14T02:02:47.037Z,327
2023-07-14T02:03:19.867Z,327
2023-07-14T02:03:51.045Z,327
2023-07-14T02:04:23.919Z,327
2023-07-14T02:04:54.939Z,327
2023-07-14T02:05:28.279Z,327
2023-07-14T02:05:58.781Z,327
2023-07-14T02:06:31.672Z,327
2023-07-14T02:07:02.998Z,327
2023-07-14T02:07:35.906Z,327
2023-07-14T02:08:06.858Z,327
2023-07-14T02:08:39.702Z,327
2023-07-14T02:09:10.855Z,327
2023-07-14T02:09:44.384Z,327
2023-07-14T02:10:15.101Z,327
2023-07-14T02:10:47.712Z,327
2023-07-14T02:11:19.075Z,327
2023-07-14T02:11:51.637Z,327
2023-07-14T02:12:23.112Z,327
2023-07-14T02:12:55.870Z,327
2023-07-14T02:13:26.782Z,327
2023-07-14T02:14:00.708Z,327
2023-07-14T02:14:30.946Z,327
2023-07-14T02:15:05.212Z,327
2023-07-14T02:15:35.262Z,327
2023-07-14T02:16:07.712Z,327
2023-07-14T02:16:39.079Z,327
2023-07-14T02:17:11.883Z,327
2023-07-14T02:17:42.729Z,327
2023-07-14T02:18:15.575Z,327
2023-07-14T02:18:46.766Z,327
2023-07-14T02:19:19.625Z,327
2023-07-14T02:19:50.780Z,327
2023-07-14T02:20:24.875Z,327
2023-07-14T02:20:54.767Z,327
2023-07-14T02:21:27.648Z,327
2023-07-14T02:21:58.879Z,327
2023-07-14T02:22:31.932Z,327
2023-07-14T02:23:03.036Z,327
2023-07-14T02:23:35.662Z,327
2023-07-14T02:24:06.954Z,327
2023-07-14T02:24:39.590Z,327
2023-07-14T02:25:11.004Z,327
2023-07-14T02:25:43.616Z,327
2023-07-14T02:26:14.741Z,327
2023-07-14T02:26:47.393Z,327
2023-07-14T02:27:18.776Z,327
2023-07-14T02:27:51.613Z,327
2023-07-14T02:28:22.661Z,327
2023-07-14T02:28:55.530Z,327
2023-07-14T02:29:26.903Z,321
2023-07-14T02:29:59.611Z,321
2023-07-14T02:30:31.908Z,321
2023-07-14T02:31:03.625Z,321
2023-07-14T02:31:34.723Z,321
2023-07-14T02:32:07.498Z,320
2023-07-14T02:32:38.865Z,320
2023-07-14T02:33:11.810Z,320
2023-07-14T02:33:42.703Z,320
2023-07-14T02:34:15.775Z,320
2023-07-14T02:34:46.974Z,320
2023-07-14T02:35:19.817Z,320
2023-07-14T02:35:50.952Z,320
2023-07-14T02:36:23.755Z,320
2023-07-14T02:36:54.950Z,320
2023-07-14T02:37:27.703Z,319
2023-07-14T02:37:58.919Z,319
2023-07-14T02:38:31.882Z,319
2023-07-14T02:39:02.796Z,319
2023-07-14T02:39:35.779Z,320
2023-07-14T02:40:07.083Z,320
2023-07-14T02:40:40.451Z,319
2023-07-14T02:41:11.095Z,319
2023-07-14T02:41:43.733Z,319
2023-07-14T02:42:14.930Z,319
2023-07-14T02:42:47.820Z,319
2023-07-14T02:43:18.813Z,319
2023-07-14T02:43:51.660Z,319
2023-07-14T02:44:22.750Z,319
2023-07-14T02:44:55.643Z,319
2023-07-14T02:45:27.877Z,319
2023-07-14T02:46:00.044Z,319
2023-07-14T02:46:30.946Z,319
2023-07-14T02:47:03.764Z,319
2023-07-14T02:47:34.876Z,319
2023-07-14T02:48:07.615Z,319
2023-07-14T02:48:38.839Z,319
2023-07-14T02:49:11.635Z,319
2023-07-14T02:49:42.882Z,319
2023-07-14T02:50:16.064Z,319
2023-07-14T02:50:46.792Z,319
2023-07-14T02:51:19.652Z,319
2023-07-14T02:51:50.842Z,319
2023-07-14T02:52:23.846Z,319
2023-07-14T02:52:54.779Z,319
2023-07-14T02:53:27.748Z,319
2023-07-14T02:53:58.773Z,319
2023-07-14T02:54:31.518Z,319
2023-07-14T02:55:03.302Z,319
2023-07-14T02:55:35.550Z,319
2023-07-14T02:56:06.809Z,319
2023-07-14T02:56:40.619Z,319
2023-07-14T02:57:10.725Z,319
2023-07-14T02:57:43.701Z,319
2023-07-14T02:58:14.867Z,319
2023-07-14T02:58:47.720Z,319
2023-07-14T02:59:18.753Z,315
2023-07-14T02:59:52.835Z,315
2023-07-14T03:00:24.037Z,315
2023-07-14T03:00:56.416Z,315
2023-07-14T03:01:26.957Z,324
2023-07-14T03:01:59.684Z,322
2023-07-14T03:02:30.809Z,317
2023-07-14T03:03:03.883Z,317
2023-07-14T03:03:35.017Z,317
2023-07-14T03:04:07.718Z,317
2023-07-14T03:04:38.703Z,317
2023-07-14T03:05:11.925Z,317
2023-07-14T03:05:42.939Z,317
2023-07-14T03:06:15.655Z,317
2023-07-14T03:06:48.037Z,317
2023-07-14T03:07:19.676Z,317
2023-07-14T03:07:50.772Z,317
2023-07-14T03:08:23.683Z,317
2023-07-14T03:08:54.780Z,317
2023-07-14T03:09:27.516Z,266
2023-07-14T03:09:58.757Z,266
2023-07-14T03:10:33.702Z,265
2023-07-14T03:11:02.812Z,271
2023-07-14T03:11:35.461Z,271
2023-07-14T03:12:06.786Z,271
2023-07-14T03:12:39.649Z,271
2023-07-14T03:13:10.689Z,269
2023-07-14T03:13:44.697Z,269
2023-07-14T03:14:14.817Z,269
2023-07-14T03:14:48.732Z,269
2023-07-14T03:15:19.729Z,269
2023-07-14T03:15:51.825Z,268
2023-07-14T03:16:22.822Z,268
2023-07-14T03:16:55.606Z,262
2023-07-14T03:17:26.858Z,262
2023-07-14T03:18:02.907Z,262
2023-07-14T03:18:30.824Z,262
2023-07-14T03:19:03.579Z,262
2023-07-14T03:19:34.992Z,262
2023-07-14T03:20:07.766Z,262
2023-07-14T03:20:38.710Z,262
2023-07-14T03:21:12.001Z,262
2023-07-14T03:21:42.876Z,260
2023-07-14T03:22:18.674Z,259
2023-07-14T03:22:46.824Z,259
2023-07-14T03:23:19.695Z,259
2023-07-14T03:23:50.644Z,259
2023-07-14T03:24:23.596Z,259
2023-07-14T03:24:54.844Z,259
2023-07-14T03:25:27.821Z,259
2023-07-14T03:25:58.717Z,259
2023-07-14T03:26:31.639Z,259
2023-07-14T03:27:02.870Z,259
2023-07-14T03:27:35.392Z,259
2023-07-14T03:28:06.778Z,161
2023-07-14T03:28:39.552Z,161
2023-07-14T03:29:11.132Z,161
2023-07-14T03:29:43.916Z,161
2023-07-14T03:30:16.082Z,161
2023-07-14T03:30:51.132Z,161
2023-07-14T03:31:19.028Z,161
2023-07-14T03:31:51.957Z,161
2023-07-14T03:32:23.068Z,161
2023-07-14T03:32:56.120Z,165
2023-07-14T03:33:26.945Z,165
2023-07-14T03:34:00.049Z,165
2023-07-14T03:34:31.154Z,165
2023-07-14T03:35:04.163Z,161
2023-07-14T03:35:35.001Z,161
2023-07-14T03:36:07.957Z,161
2023-07-14T03:36:38.920Z,161
2023-07-14T03:37:11.986Z,161
2023-07-14T03:37:43.000Z,161
2023-07-14T03:38:15.791Z,161
2023-07-14T03:38:46.989Z,161
2023-07-14T03:39:20.947Z,161
2023-07-14T03:39:51.003Z,161
2023-07-14T03:40:24.071Z,161
2023-07-14T03:40:55.006Z,161
2023-07-14T03:41:27.834Z,161
2023-07-14T03:41:59.089Z,161
2023-07-14T03:42:31.702Z,161
2023-07-14T03:43:03.099Z,161
2023-07-14T03:43:35.860Z,161
2023-07-14T03:44:06.974Z,161
2023-07-14T03:44:40.007Z,161
2023-07-14T03:45:12.084Z,161
2023-07-14T03:45:44.039Z,74
2023-07-14T03:46:15.179Z,39
2023-07-14T03:46:47.846Z,39
2023-07-14T03:47:19.137Z,39
2023-07-14T03:47:51.861Z,39
2023-07-14T03:48:22.963Z,39
2023-07-14T03:48:56.978Z,39
2023-07-14T03:49:27.016Z,39
2023-07-14T03:49:59.746Z,39
2023-07-14T03:50:31.439Z,39
2023-07-14T03:51:04.924Z,39
2023-07-14T03:51:35.057Z,39
2023-07-14T03:52:07.852Z,39
2023-07-14T03:52:39.084Z,39
2023-07-14T03:53:11.794Z,39
2023-07-14T03:53:43.139Z,21
2023-07-14T03:54:15.868Z,21
2023-07-14T03:54:47.165Z,21
2023-07-14T03:55:21.005Z,21
2023-07-14T03:55:51.174Z,21
2023-07-14T03:56:23.926Z,21
2023-07-14T03:56:55.023Z,21
2023-07-14T03:57:27.902Z,21
2023-07-14T03:58:04.168Z,21
2023-07-14T03:58:32.219Z,21
2023-07-14T03:59:03.027Z,21
2023-07-14T03:59:35.898Z,21
2023-07-14T04:00:08.443Z,21
2023-07-14T04:00:41.011Z,21
2023-07-14T04:01:10.882Z,21
2023-07-14T04:01:43.935Z,21
2023-07-14T04:02:15.022Z,21
2023-07-14T04:02:47.841Z,21
2023-07-14T04:03:19.108Z,21
2023-07-14T04:03:52.026Z,358
2023-07-14T04:04:23.203Z,358
2023-07-14T04:04:55.792Z,258
2023-07-14T04:05:27.261Z,258
2023-07-14T04:05:59.979Z,258
2023-07-14T04:06:30.962Z,257
2023-07-14T04:07:03.946Z,254
2023-07-14T04:07:35.080Z,254
2023-07-14T04:08:08.146Z,254
2023-07-14T04:08:38.937Z,254
2023-07-14T04:08:55.261Z,254
2023-07-14T04:09:26.955Z,254
2023-07-14T04:09:58.967Z,254
2023-07-14T04:10:31.500Z,254
2023-07-14T04:11:03.022Z,254
2023-07-14T04:11:35.721Z,254
2023-07-14T04:12:07.149Z,254
2023-07-14T04:12:39.890Z,254
2023-07-14T04:13:11.022Z,248
2023-07-14T04:13:43.925Z,248
2023-07-14T04:14:15.075Z,159
2023-07-14T04:14:47.805Z,159
2023-07-14T04:15:20.064Z,159
2023-07-14T04:15:52.180Z,159
2023-07-14T04:16:22.972Z,159
2023-07-14T04:16:55.902Z,93
2023-07-14T04:17:27.073Z,93
2023-07-14T04:17:59.941Z,93
2023-07-14T04:18:30.916Z,88
2023-07-14T04:19:03.707Z,88
2023-07-14T04:19:35.092Z,88
2023-07-14T04:20:07.883Z,88
2023-07-14T04:20:38.960Z,88
2023-07-14T04:21:11.806Z,88
2023-07-14T04:21:43.090Z,88
2023-07-14T04:22:15.888Z,88
2023-07-14T04:22:47.017Z,88
2023-07-14T04:23:20.258Z,88
2023-07-14T04:23:51.404Z,88
2023-07-14T04:24:23.896Z,88
2023-07-14T04:24:55.130Z,85
2023-07-14T04:25:28.388Z,84
2023-07-14T04:25:59.064Z,20
2023-07-14T04:26:31.873Z,20
2023-07-14T04:27:03.079Z,20
2023-07-14T04:27:36.089Z,20
2023-07-14T04:28:07.017Z,20
2023-07-14T04:28:39.806Z,20
2023-07-14T04:29:11.160Z,20
2023-07-14T04:29:43.784Z,20
2023-07-14T04:30:16.066Z,20
2023-07-14T04:30:49.002Z,20
2023-07-14T04:31:19.214Z,20
2023-07-14T04:31:51.885Z,20
2023-07-14T04:32:23.221Z,18
2023-07-14T04:32:56.206Z,18
2023-07-14T04:33:27.066Z,18
2023-07-14T04:33:59.950Z,18
2023-07-14T04:34:31.218Z,329
2023-07-14T04:35:04.199Z,329
2023-07-14T04:35:35.171Z,329
2023-07-14T04:36:07.803Z,321
2023-07-14T04:36:39.160Z,321
2023-07-14T04:37:11.867Z,321
2023-07-14T04:37:43.091Z,321
2023-07-14T04:38:15.983Z,320
2023-07-14T04:38:47.009Z,320
2023-07-14T04:39:20.041Z,320
2023-07-14T04:39:51.202Z,320
2023-07-14T04:40:34.393Z,320
2023-07-14T04:40:55.199Z,320
2023-07-14T04:41:27.878Z,320
2023-07-14T04:41:59.165Z,320
2023-07-14T04:42:32.306Z,320
2023-07-14T04:43:03.093Z,320
2023-07-14T04:43:35.954Z,320
2023-07-14T04:44:07.143Z,320
2023-07-14T04:44:40.754Z,320
2023-07-14T04:45:12.125Z,316
2023-07-14T04:45:44.149Z,316
2023-07-14T04:46:15.351Z,316
2023-07-14T04:46:47.831Z,1
2023-07-14T04:47:19.163Z,341
2023-07-14T04:47:51.939Z,341
2023-07-14T04:48:22.997Z,325
2023-07-14T04:48:55.866Z,341
2023-07-14T04:49:27.185Z,341
2023-07-14T04:50:00.972Z,341
2023-07-14T04:50:31.151Z,341
2023-07-14T04:51:03.830Z,341
2023-07-14T04:51:34.991Z,320
2023-07-14T04:52:07.892Z,312
2023-07-14T04:52:39.109Z,312
2023-07-14T04:53:12.103Z,315
2023-07-14T04:53:42.998Z,315
2023-07-14T04:54:16.553Z,315
2023-07-14T04:54:47.113Z,315
2023-07-14T04:55:20.490Z,315
2023-07-14T04:55:51.209Z,315
2023-07-14T04:56:24.928Z,309
2023-07-14T04:56:54.948Z,315
2023-07-14T04:57:27.748Z,315
2023-07-14T04:57:59.071Z,315
2023-07-14T04:58:32.039Z,315
2023-07-14T04:59:02.903Z,315
2023-07-14T04:59:35.889Z,322
2023-07-14T05:00:08.395Z,310
2023-07-14T05:00:40.885Z,306
2023-07-14T05:01:11.086Z,306
2023-07-14T05:01:43.712Z,313
2023-07-14T05:02:15.146Z,313
2023-07-14T05:02:47.903Z,313
2023-07-14T05:03:19.191Z,313
2023-07-14T05:03:51.850Z,313
2023-07-14T05:04:23.164Z,313
2023-07-14T05:05:01.185Z,313
2023-07-14T05:05:27.409Z,313
2023-07-14T05:05:59.622Z,299
2023-07-14T05:06:31.100Z,305
2023-07-14T05:07:03.807Z,305
2023-07-14T05:07:35.137Z,307
2023-07-14T05:08:07.850Z,307
2023-07-14T05:08:39.101Z,307
2023-07-14T05:09:11.763Z,307
2023-07-14T05:09:43.238Z,298
2023-07-14T05:10:17.837Z,299
2023-07-14T05:10:47.035Z,299
2023-07-14T05:11:20.813Z,298
2023-07-14T05:11:50.998Z,298
2023-07-14T05:12:23.790Z,298
2023-07-14T05:12:55.186Z,298
2023-07-14T05:13:27.728Z,298
2023-07-14T05:13:59.047Z,298
2023-07-14T05:14:31.912Z,298
2023-07-14T05:15:04.750Z,298
2023-07-14T05:15:36.026Z,298
2023-07-14T05:16:07.238Z,293
2023-07-14T05:16:39.966Z,293
2023-07-14T05:17:11.026Z,293
2023-07-14T05:17:43.996Z,282
2023-07-14T05:18:15.110Z,301
2023-07-14T05:18:47.822Z,301
2023-07-14T05:19:19.066Z,301
2023-07-14T05:19:52.629Z,299
2023-07-14T05:20:23.383Z,299
2023-07-14T05:20:55.677Z,296
2023-07-14T05:21:26.981Z,293
2023-07-14T05:21:59.838Z,293
2023-07-14T05:22:31.240Z,293
2023-07-14T05:23:04.135Z,293
2023-07-14T05:23:35.136Z,293
2023-07-14T05:24:07.867Z,293
2023-07-14T05:24:39.163Z,293
2023-07-14T05:25:11.968Z,299
2023-07-14T05:25:43.131Z,299
2023-07-14T05:26:16.037Z,299
2023-07-14T05:26:47.042Z,299
2023-07-14T05:27:19.928Z,299
2023-07-14T05:27:51.126Z,299
2023-07-14T05:28:23.520Z,299
2023-07-14T05:28:55.046Z,299
2023-07-14T05:29:28.749Z,299
2023-07-14T05:29:59.109Z,290
2023-07-14T05:30:32.965Z,290
2023-07-14T05:31:04.585Z,336
2023-07-14T05:31:35.957Z,357
2023-07-14T05:32:07.093Z,357
2023-07-14T05:32:39.778Z,357
2023-07-14T05:33:11.119Z,357
2023-07-14T05:33:43.828Z,357
2023-07-14T05:34:15.096Z,357
2023-07-14T05:34:47.991Z,357
2023-07-14T05:35:19.528Z,357
2023-07-14T05:35:51.710Z,357
2023-07-14T05:36:23.035Z,12
2023-07-14T05:36:55.905Z,3
2023-07-14T05:37:27.053Z,3
2023-07-14T05:38:00.746Z,3
2023-07-14T05:38:31.085Z,3
2023-07-14T05:39:04.211Z,3
2023-07-14T05:39:35.178Z,3
2023-07-14T05:40:08.068Z,3
2023-07-14T05:40:51.564Z,3
2023-07-14T05:41:11.949Z,3
2023-07-14T05:41:43.366Z,30
2023-07-14T05:42:16.456Z,30
2023-07-14T05:42:47.502Z,30
2023-07-14T05:43:20.183Z,30
2023-07-14T05:43:51.436Z,30
2023-07-14T05:44:24.269Z,59
2023-07-14T05:44:55.313Z,59
2023-07-14T05:45:30.448Z,59
2023-07-14T05:45:59.448Z,59
2023-07-14T05:46:32.417Z,59
2023-07-14T05:47:03.427Z,59
2023-07-14T05:47:37.090Z,59
2023-07-14T05:48:07.544Z,59
2023-07-14T05:48:40.099Z,59
2023-07-14T05:49:11.363Z,59
2023-07-14T05:49:45.436Z,59
2023-07-14T05:50:15.523Z,35
2023-07-14T05:50:49.404Z,35
2023-07-14T05:51:19.449Z,35
2023-07-14T05:51:52.348Z,28
2023-07-14T05:52:23.320Z,28
2023-07-14T05:52:56.181Z,28
2023-07-14T05:53:27.395Z,28
2023-07-14T05:54:00.149Z,28
2023-07-14T05:54:31.460Z,28
2023-07-14T05:55:04.532Z,28
2023-07-14T05:55:35.523Z,28
2023-07-14T05:56:08.050Z,28
2023-07-14T05:56:39.330Z,28
2023-07-14T05:57:12.120Z,26
2023-07-14T05:57:43.387Z,26
2023-07-14T05:58:16.239Z,28
2023-07-14T05:58:47.338Z,333
2023-07-14T05:59:20.313Z,312
2023-07-14T05:59:51.355Z,312
2023-07-14T06:00:26.340Z,312
2023-07-14T06:00:55.798Z,312
2023-07-14T06:01:28.399Z,308
2023-07-14T06:01:59.491Z,308
2023-07-14T06:02:32.461Z,312
2023-07-14T06:03:03.669Z,312
2023-07-14T06:03:37.182Z,308
2023-07-14T06:04:07.564Z,312
2023-07-14T06:04:40.262Z,345
2023-07-14T06:05:11.572Z,345
2023-07-14T06:05:44.257Z,345
2023-07-14T06:06:15.726Z,345
2023-07-14T06:06:48.386Z,345
2023-07-14T06:07:19.396Z,345
2023-07-14T06:07:52.292Z,345
2023-07-14T06:08:24.026Z,345
2023-07-14T06:08:56.070Z,345
2023-07-14T06:09:27.396Z,345
2023-07-14T06:10:00.074Z,345
2023-07-14T06:10:31.872Z,345
2023-07-14T06:11:04.206Z,50
2023-07-14T06:11:35.474Z,49
2023-07-14T06:12:08.351Z,50
2023-07-14T06:12:39.360Z,50
2023-07-14T06:12:55.479Z,50
2023-07-14T06:13:27.344Z,50
2023-07-14T06:13:59.325Z,50
2023-07-14T06:14:34.262Z,50
2023-07-14T06:15:06.992Z,50
2023-07-14T06:15:37.111Z,50
2023-07-14T06:16:08.075Z,0
2023-07-14T06:16:40.411Z,62
2023-07-14T06:17:11.389Z,42
2023-07-14T06:17:44.570Z,42
2023-07-14T06:18:15.875Z,35
2023-07-14T06:18:50.159Z,36
2023-07-14T06:19:19.670Z,30
2023-07-14T06:19:52.308Z,98
2023-07-14T06:20:23.888Z,98
2023-07-14T06:20:56.094Z,98
2023-07-14T06:21:27.550Z,30
2023-07-14T06:22:00.282Z,30
2023-07-14T06:22:31.403Z,30
2023-07-14T06:23:04.478Z,30
2023-07-14T06:23:35.533Z,30
2023-07-14T06:24:08.400Z,57
2023-07-14T06:24:39.383Z,30
2023-07-14T06:25:12.429Z,30
2023-07-14T06:25:43.627Z,30
2023-07-14T06:26:16.310Z,27
2023-07-14T06:26:47.546Z,27
2023-07-14T06:27:20.589Z,27
2023-07-14T06:27:51.575Z,27
2023-07-14T06:28:25.540Z,27
2023-07-14T06:28:55.580Z,27
2023-07-14T06:29:28.317Z,27
2023-07-14T06:29:59.524Z,27
2023-07-14T06:30:33.732Z,27
2023-07-14T06:31:03.378Z,27
2023-07-14T06:31:36.228Z,60
2023-07-14T06:32:07.539Z,87
2023-07-14T06:32:40.473Z,87
2023-07-14T06:33:11.523Z,27
2023-07-14T06:33:44.314Z,68
2023-07-14T06:34:15.548Z,60
2023-07-14T06:34:54.073Z,60
2023-07-14T06:35:19.719Z,60
2023-07-14T06:35:51.501Z,60
2023-07-14T06:36:23.405Z,60
2023-07-14T06:36:55.481Z,60
2023-07-14T06:37:27.367Z,60
2023-07-14T06:37:59.476Z,60
2023-07-14T06:38:31.440Z,60
2023-07-14T06:39:03.508Z,54
2023-07-14T06:39:36.493Z,57
2023-07-14T06:40:07.693Z,57
2023-07-14T06:40:40.193Z,57
2023-07-14T06:41:11.488Z,57
2023-07-14T06:41:44.321Z,57
2023-07-14T06:42:15.362Z,57
2023-07-14T06:42:49.181Z,57
2023-07-14T06:43:19.617Z,57
2023-07-14T06:43:52.206Z,57
2023-07-14T06:44:26.019Z,28
2023-07-14T06:44:56.335Z,71
2023-07-14T06:45:28.491Z,71
2023-07-14T06:46:00.499Z,118
2023-07-14T06:46:31.609Z,75
2023-07-14T06:47:04.551Z,75
2023-07-14T06:47:35.556Z,46
2023-07-14T06:48:23.492Z,46
2023-07-14T06:49:04.690Z,37
2023-07-14T06:49:29.378Z,37
2023-07-14T06:49:59.462Z,351
2023-07-14T06:50:31.969Z,39
2023-07-14T06:51:03.510Z,39
2023-07-14T06:51:35.551Z,8
2023-07-14T06:52:07.541Z,37
2023-07-14T06:52:39.423Z,68
2023-07-14T06:53:11.518Z,68
2023-07-14T06:53:43.369Z,68
2023-07-14T06:54:17.203Z,53
2023-07-14T06:54:47.620Z,53
2023-07-14T06:55:20.531Z,53
2023-07-14T06:55:51.493Z,13
2023-07-14T06:56:25.024Z,13
2023-07-14T06:56:55.516Z,13
2023-07-14T06:57:28.147Z,58
2023-07-14T06:57:59.375Z,65
2023-07-14T06:58:32.670Z,65
2023-07-14T06:59:03.479Z,65
2023-07-14T06:59:36.278Z,80
2023-07-14T07:00:09.065Z,67
2023-07-14T07:00:40.277Z,88
2023-07-14T07:01:11.669Z,65
2023-07-14T07:01:47.169Z,57
2023-07-14T07:02:15.664Z,57
2023-07-14T07:02:48.517Z,85
2023-07-14T07:03:19.412Z,85
2023-07-14T07:03:53.898Z,65
2023-07-14T07:04:23.573Z,65
2023-07-14T07:05:00.604Z,65
2023-07-14T07:05:27.467Z,65
2023-07-14T07:05:59.834Z,65
2023-07-14T07:06:31.654Z,65
2023-07-14T07:07:03.375Z,65
2023-07-14T07:07:36.413Z,65
2023-07-14T07:08:07.683Z,54
2023-07-14T07:08:41.092Z,84
2023-07-14T07:09:11.567Z,59
2023-07-14T07:09:44.396Z,54
2023-07-14T07:10:15.824Z,54
2023-07-14T07:10:48.370Z,59
2023-07-14T07:11:19.678Z,59
2023-07-14T07:11:52.014Z,59
2023-07-14T07:12:23.412Z,54
2023-07-14T07:12:56.381Z,99
2023-07-14T07:13:27.450Z,99
2023-07-14T07:14:01.256Z,90
2023-07-14T07:14:31.495Z,90
2023-07-14T07:15:05.675Z,90
2023-07-14T07:15:35.850Z,90
2023-07-14T07:16:08.407Z,90
2023-07-14T07:16:39.543Z,90
2023-07-14T07:17:12.291Z,90
2023-07-14T07:17:43.567Z,90
2023-07-14T07:18:16.415Z,90
2023-07-14T07:18:47.405Z,101
2023-07-14T07:19:20.298Z,101
2023-07-14T07:19:51.606Z,101
2023-07-14T07:20:25.326Z,99
2023-07-14T07:20:55.465Z,96
2023-07-14T07:21:28.352Z,87
2023-07-14T07:21:59.492Z,98
2023-07-14T07:22:32.342Z,90
2023-07-14T07:23:03.638Z,110
2023-07-14T07:23:36.462Z,91